Terminal Aerodrome Forecast
Issued by NWS

Home | Current Version | Previous Version | Text Only | Print | Product List | Glossary On
Versions: 1 2 3 4 5 6 7 8 9 10 11 12 13 14 15 16 17 18 19 20 21 22
934
FTAK31 PAJN 251520 AAB
TAFAKT
TAF AMD
PAKT 251520Z 2515/2612 15004KT P6SM -SHRA SCT008 OVC022
      TEMPO 2515/2518 6SM -SHRA BKN008 OVC020
     FM252100 12005KT 5SM -RA BR SCT007 OVC015
     FM260200 27005KT 4SM -RA BR BKN007 OVC015=

USA.gov is the U.S. government's official web portal to all federal, state and local government web resources and services.